Current Weather

Heathrow

London, United Kingdom (EGLL)

Report from: Tuesday, February 27, 2024 10:50 AM GMT
Current time: Tuesday, February 27, 2024 11:09 AM GMT

Nearby weather – Weather history – Daily summaries
Weather forecast

Temperature6.0°C (42.8°F)
Wind chill4.0°C (39.3°F)
Dew point2.0°C (35.6°F)
Winds 5 kts (2.6 m/s, 5.8 mph) Vrb
Winds variableWinds variable from Southwest (230°) to West-Northwest (290°)
Visibility6.2 mi. (10 km)
Clouds Sky clear
Altimeter30.18 in.Hg (1022 mB)
Relative humidity75 %
Density altitude-1,277 ft. (-389 m)
Remarks Fully automated report
No clouds detected
No significant changes expected in the next two hours
Flight conditions Visual Meteorological Conditions
Raw dataEGLL 271050Z AUTO 27005KT 230V290 9999 NCD 06/02 Q1022 NOSIG
An error has occurred. This application may no longer respond until reloaded. Reload 🗙